Time;durP1;ratioP1;P1;durP2;ratioP2;P2;SDS_P1;SDS_P2;PMS_P1;PMS_P2;Temp;Humidity;BMP_temperature;BMP_pressure;BME280_temperature;BME280_humidity;BME280_pressure;Samples;Min_cycle;Max_cycle;Signal;HPM_P1;HPM_P2
2022/03/15 00:00:06;;;;;;;;;;;;;;;;;;2090568;28;20011;-48
2022/03/15 00:01:07;;;;;;;;;;;;;;;;;;2090420;28;20453;-48
2022/03/15 00:02:08;;;;;;;;;;;;;;;;;;2090197;28;19926;-47
2022/03/15 00:03:10;;;;;;;;;;;;;;;;;;2090418;28;19925;-43
2022/03/15 00:04:11;;;;;;;;;;;;;;;;;;2090171;28;19972;-43
2022/03/15 00:05:12;;;;;;;;;;;;;;;;;;2090190;28;19925;-44
2022/03/15 00:06:14;;;;;;;;;;;;;;;;;;2090196;28;19933;-43
2022/03/15 00:07:16;;;;;;;;;;;;;;;;;;2090112;28;19928;-43
2022/03/15 00:08:19;;;;;;;;;;;;;;;;;;2089894;28;20058;-44
2022/03/15 00:09:20;;;;;;;;;;;;;;;;;;2090121;28;20021;-43
2022/03/15 00:10:22;;;;;;;;;;;;;;;;;;2089995;28;19925;-43
2022/03/15 00:11:23;;;;;;;;;;;;;;;;;;2090110;28;20008;-44
2022/03/15 00:12:24;;;;;;;;;;;;;;;;;;2090276;28;20284;-43
2022/03/15 00:13:30;;;;;;;;;;;;;;;;;;2089888;28;20309;-44
2022/03/15 00:14:36;;;;;;;;;;;;;;;;;;2089082;28;19925;-43
2022/03/15 00:15:42;;;;;;;;;;;;;;;;;;2089524;28;20015;-44
2022/03/15 00:16:43;;;;;;;;;;;;;;;;;;2089386;28;19935;-43
2022/03/15 00:17:45;;;;;;;;;;;;;;;;;;2089281;28;20410;-44
2022/03/15 00:18:46;;;;;;;;;;;;;;;;;;2089590;28;20012;-43
2022/03/15 00:19:47;;;;;;;;;;;;;;;;;;2090235;28;19967;-48
2022/03/15 00:20:49;;;;;;;;;;;;;;;;;;2089954;28;20012;-43
2022/03/15 00:21:50;;;;;;;;;;;;;;;;;;2090109;28;20031;-44
2022/03/15 00:22:52;;;;;;;;;;;;;;;;;;2089434;28;20520;-44
2022/03/15 00:23:53;;;;;;;;;;;;;;;;;;2089320;28;19971;-45
2022/03/15 00:24:54;;;;;;;;;;;;;;;;;;2089521;28;20011;-44
2022/03/15 00:25:56;;;;;;;;;;;;;;;;;;2089026;28;20073;-44
2022/03/15 00:26:58;;;;;;;;;;;;;;;;;;2089420;28;20019;-44
2022/03/15 00:28:00;;;;;;;;;;;;;;;;;;2089036;28;19985;-48
2022/03/15 00:29:01;;;;;;;;;;;;;;;;;;2088629;28;20777;-48
2022/03/15 00:30:03;;;;;;;;;;;;;;;;;;2089703;28;20011;-47
2022/03/15 00:31:04;;;;;;;;;;;;;;;;;;2088733;28;20012;-48
2022/03/15 00:32:06;;;;;;;;;;;;;;;;;;2088320;28;20386;-50
2022/03/15 00:33:08;;;;;;;;;;;;;;;;;;2089946;28;20067;-50
2022/03/15 00:34:09;;;;;;;;;;;;;;;;;;2089553;28;20353;-44
2022/03/15 00:35:16;;;;;;;;;;;;;;;;;;2089997;28;19924;-44
2022/03/15 00:36:17;;;;;;;;;;;;;;;;;;2090068;28;19925;-48
2022/03/15 00:37:19;;;;;;;;;;;;;;;;;;2090058;28;19975;-50
2022/03/15 00:38:20;;;;;;;;;;;;;;;;;;2089696;28;19933;-50
2022/03/15 00:39:21;;;;;;;;;;;;;;;;;;2090020;28;19925;-49
2022/03/15 00:40:24;;;;;;;;;;;;;;;;;;2090085;28;19936;-48
2022/03/15 00:41:25;;;;;;;;;;;;;;;;;;2089835;28;20406;-47
2022/03/15 00:42:26;;;;;;;;;;;;;;;;;;2089909;28;19925;-48
2022/03/15 00:43:27;;;;;;;;;;;;;;;;;;2089916;28;19925;-48
2022/03/15 00:44:28;;;;;;;;;;;;;;;;;;2089968;28;20474;-48
2022/03/15 00:45:30;;;;;;;;;;;;;;;;;;2090032;28;20011;-49
2022/03/15 00:46:31;;;;;;;;;;;;;;;;;;2089766;28;20424;-47
2022/03/15 00:47:32;;;;;;;;;;;;;;;;;;2090057;28;19989;-48
2022/03/15 00:48:33;;;;;;;;;;;;;;;;;;2089606;28;19975;-44
2022/03/15 00:49:34;;;;;;;;;;;;;;;;;;2089528;28;20034;-44
2022/03/15 00:50:37;;;;;;;;;;;;;;;;;;2085371;28;19932;-44
2022/03/15 00:51:38;;;;;;;;;;;;;;;;;;2089452;28;19925;-45
2022/03/15 00:52:39;;;;;;;;;;;;;;;;;;2089756;28;20007;-44
2022/03/15 00:53:40;;;;;;;;;;;;;;;;;;2090311;28;19967;-48
2022/03/15 00:54:42;;;;;;;;;;;;;;;;;;2089472;28;19929;-48
2022/03/15 00:55:43;;;;;;;;;;;;;;;;;;2089230;28;20369;-47
2022/03/15 00:56:44;;;;;;;;;;;;;;;;;;2089603;28;20018;-47
2022/03/15 00:57:45;;;;;;;;;;;;;;;;;;2089626;28;20022;-48
2022/03/15 00:58:46;;;;;;;;;;;;;;;;;;2088806;28;20020;-47
2022/03/15 00:59:47;;;;;;;;;;;;;;;;;;2089579;28;20019;-48
2022/03/15 01:00:48;;;;;;;;;;;;;;;;;;2081766;28;19957;-47
2022/03/15 01:01:50;;;;;;;;;;;;;;;;;;2081710;28;19925;-48
2022/03/15 01:02:51;;;;;;;;;;;;;;;;;;2081623;28;19979;-49
2022/03/15 01:03:52;;;;;;;;;;;;;;;;;;2082083;28;20417;-48
2022/03/15 01:04:53;;;;;;;;;;;;;;;;;;2089863;28;20397;-47
2022/03/15 01:05:55;;;;;;;;;;;;;;;;;;2089801;28;19925;-47
2022/03/15 01:06:56;;;;;;;;;;;;;;;;;;2089721;28;19924;-52
2022/03/15 01:07:57;;;;;;;;;;;;;;;;;;2089741;28;20015;-48
2022/03/15 01:08:58;;;;;;;;;;;;;;;;;;2089652;28;20362;-47
2022/03/15 01:09:59;;;;;;;;;;;;;;;;;;2089654;28;20008;-48
2022/03/15 01:11:01;;;;;;;;;;;;;;;;;;2089586;28;20011;-48
2022/03/15 01:12:02;;;;;;;;;;;;;;;;;;2090134;28;19990;-47
2022/03/15 01:13:03;;;;;;;;;;;;;;;;;;2089788;28;20397;-47
2022/03/15 01:14:04;;;;;;;;;;;;;;;;;;2089697;28;19925;-48
2022/03/15 01:15:06;;;;;;;;;;;;;;;;;;2089726;28;20054;-48
2022/03/15 01:16:07;;;;;;;;;;;;;;;;;;2089810;28;19932;-48
2022/03/15 01:17:09;;;;;;;;;;;;;;;;;;2089400;28;20004;-49
2022/03/15 01:18:10;;;;;;;;;;;;;;;;;;2089739;28;20397;-50
2022/03/15 01:19:11;;;;;;;;;;;;;;;;;;2089517;28;19925;-48
2022/03/15 01:20:12;;;;;;;;;;;;;;;;;;2089627;28;20023;-48
2022/03/15 01:21:14;;;;;;;;;;;;;;;;;;2089701;28;20015;-48
2022/03/15 01:22:15;;;;;;;;;;;;;;;;;;2089875;28;19932;-44
2022/03/15 01:23:16;;;;;;;;;;;;;;;;;;2089806;28;20544;-48
2022/03/15 01:24:18;;;;;;;;;;;;;;;;;;2089520;28;19925;-47
2022/03/15 01:25:19;;;;;;;;;;;;;;;;;;2089745;28;19925;-47
2022/03/15 01:26:20;;;;;;;;;;;;;;;;;;2089509;28;20075;-48
2022/03/15 01:27:22;;;;;;;;;;;;;;;;;;2089878;28;19933;-48
2022/03/15 01:28:23;;;;;;;;;;;;;;;;;;2089630;28;20379;-48
2022/03/15 01:29:26;;;;;;;;;;;;;;;;;;2088130;28;19986;-48
2022/03/15 01:30:29;;;;;;;;;;;;;;;;;;2081294;28;19980;-49
2022/03/15 01:31:30;;;;;;;;;;;;;;;;;;2082894;28;19925;-48
2022/03/15 01:32:31;;;;;;;;;;;;;;;;;;2081596;28;19960;-45
2022/03/15 01:33:33;;;;;;;;;;;;;;;;;;2081568;28;19968;-43
2022/03/15 01:34:34;;;;;;;;;;;;;;;;;;2081411;28;20008;-43
2022/03/15 01:35:35;;;;;;;;;;;;;;;;;;2083718;28;20340;-47
2022/03/15 01:36:36;;;;;;;;;;;;;;;;;;2089575;28;20010;-48
2022/03/15 01:37:38;;;;;;;;;;;;;;;;;;2089539;28;19925;-50
2022/03/15 01:38:39;;;;;;;;;;;;;;;;;;2089208;28;19936;-47
2022/03/15 01:39:40;;;;;;;;;;;;;;;;;;2089694;28;20012;-48
2022/03/15 01:40:41;;;;;;;;;;;;;;;;;;2089766;28;19952;-49
2022/03/15 01:41:44;;;;;;;;;;;;;;;;;;2089419;28;20035;-49
2022/03/15 01:42:45;;;;;;;;;;;;;;;;;;2089805;28;20338;-49
2022/03/15 01:43:47;;;;;;;;;;;;;;;;;;2089622;28;19931;-48
2022/03/15 01:44:49;;;;;;;;;;;;;;;;;;2089457;28;19925;-47
2022/03/15 01:45:50;;;;;;;;;;;;;;;;;;2089722;28;19964;-48
2022/03/15 01:46:51;;;;;;;;;;;;;;;;;;2089321;28;19931;-48
2022/03/15 01:47:53;;;;;;;;;;;;;;;;;;2088269;28;19978;-49
2022/03/15 01:48:54;;;;;;;;;;;;;;;;;;2083392;28;19925;-47
2022/03/15 01:49:56;;;;;;;;;;;;;;;;;;2089461;28;19931;-48
2022/03/15 01:50:57;;;;;;;;;;;;;;;;;;2086924;28;20078;-50
2022/03/15 01:51:58;;;;;;;;;;;;;;;;;;2084914;28;19925;-48
2022/03/15 01:52:59;;;;;;;;;;;;;;;;;;2085001;28;20377;-47
2022/03/15 01:54:01;;;;;;;;;;;;;;;;;;2089449;28;20424;-48
2022/03/15 01:55:02;;;;;;;;;;;;;;;;;;2089684;28;20019;-44
2022/03/15 01:56:03;;;;;;;;;;;;;;;;;;2089618;28;20020;-44
2022/03/15 01:57:07;;;;;;;;;;;;;;;;;;2089165;28;20398;-44
2022/03/15 01:58:09;;;;;;;;;;;;;;;;;;2089451;28;19971;-43
2022/03/15 01:59:09;;;;;;;;;;;;;;;;;;2089452;28;19971;-44
2022/03/15 02:00:11;;;;;;;;;;;;;;;;;;2089938;28;19924;-44
2022/03/15 02:01:12;;;;;;;;;;;;;;;;;;2089442;28;19925;-44
2022/03/15 02:02:13;;;;;;;;;;;;;;;;;;2089685;28;19929;-44
2022/03/15 02:03:15;;;;;;;;;;;;;;;;;;2089143;28;20446;-48
2022/03/15 02:04:17;;;;;;;;;;;;;;;;;;2089261;28;19940;-49
2022/03/15 02:05:18;;;;;;;;;;;;;;;;;;2089547;28;19931;-49
2022/03/15 02:06:19;;;;;;;;;;;;;;;;;;2089245;28;19956;-49
2022/03/15 02:07:20;;;;;;;;;;;;;;;;;;2089074;28;20043;-48
2022/03/15 02:08:22;;;;;;;;;;;;;;;;;;2089322;28;19924;-48
2022/03/15 02:09:23;;;;;;;;;;;;;;;;;;2089006;28;19960;-48
2022/03/15 02:10:24;;;;;;;;;;;;;;;;;;2089236;28;19985;-50
2022/03/15 02:11:27;;;;;;;;;;;;;;;;;;2088867;28;19932;-49
2022/03/15 02:12:28;;;;;;;;;;;;;;;;;;2089002;28;20020;-48
2022/03/15 02:13:29;;;;;;;;;;;;;;;;;;2089418;28;20373;-48
2022/03/15 02:14:31;;;;;;;;;;;;;;;;;;2089589;28;19932;-48
2022/03/15 02:15:31;;;;;;;;;;;;;;;;;;2089275;28;20028;-48
2022/03/15 02:16:33;;;;;;;;;;;;;;;;;;2089051;28;19932;-49
2022/03/15 02:17:34;;;;;;;;;;;;;;;;;;2089307;28;19980;-49
2022/03/15 02:18:35;;;;;;;;;;;;;;;;;;2089383;28;19967;-48
2022/03/15 02:19:36;;;;;;;;;;;;;;;;;;2089426;28;19936;-48
2022/03/15 02:20:38;;;;;;;;;;;;;;;;;;2089100;28;19947;-51
2022/03/15 02:21:39;;;;;;;;;;;;;;;;;;2089382;28;19978;-51
2022/03/15 02:22:40;;;;;;;;;;;;;;;;;;2089356;28;19933;-44
2022/03/15 02:23:41;;;;;;;;;;;;;;;;;;2089740;28;19929;-45
2022/03/15 02:24:43;;;;;;;;;;;;;;;;;;2089251;28;19986;-44
2022/03/15 02:25:44;;;;;;;;;;;;;;;;;;2089763;28;19983;-52
2022/03/15 02:26:45;;;;;;;;;;;;;;;;;;2088935;28;19939;-50
2022/03/15 02:27:46;;;;;;;;;;;;;;;;;;2089096;28;19968;-48
2022/03/15 02:28:48;;;;;;;;;;;;;;;;;;2089315;28;20016;-49
2022/03/15 02:29:49;;;;;;;;;;;;;;;;;;2089422;28;19925;-49
2022/03/15 02:30:50;;;;;;;;;;;;;;;;;;2089231;28;20302;-51
2022/03/15 02:31:53;;;;;;;;;;;;;;;;;;2089132;28;20020;-48
2022/03/15 02:32:54;;;;;;;;;;;;;;;;;;2088995;28;19929;-52
2022/03/15 02:33:55;;;;;;;;;;;;;;;;;;2089006;28;20339;-50
2022/03/15 02:34:56;;;;;;;;;;;;;;;;;;2089467;28;19924;-44
2022/03/15 02:35:58;;;;;;;;;;;;;;;;;;2089339;28;19960;-43
2022/03/15 02:36:59;;;;;;;;;;;;;;;;;;2089601;28;20342;-48
2022/03/15 02:38:00;;;;;;;;;;;;;;;;;;2090715;28;19961;-49
2022/03/15 02:39:02;;;;;;;;;;;;;;;;;;2090952;28;19975;-48
2022/03/15 02:40:03;;;;;;;;;;;;;;;;;;2090759;28;20007;-51
2022/03/15 02:41:06;;;;;;;;;;;;;;;;;;2090787;28;19964;-50
2022/03/15 02:42:07;;;;;;;;;;;;;;;;;;2090713;28;19925;-48
2022/03/15 02:43:08;;;;;;;;;;;;;;;;;;2090196;28;20011;-49
2022/03/15 02:44:09;;;;;;;;;;;;;;;;;;2090829;28;20437;-48
2022/03/15 02:45:10;;;;;;;;;;;;;;;;;;2090372;28;19925;-49
2022/03/15 02:46:11;;;;;;;;;;;;;;;;;;2090548;28;20000;-48
2022/03/15 02:47:13;;;;;;;;;;;;;;;;;;2090969;28;19924;-44
2022/03/15 02:48:14;;;;;;;;;;;;;;;;;;2086662;28;20021;-44
2022/03/15 02:49:15;;;;;;;;;;;;;;;;;;2082533;28;20012;-44
2022/03/15 02:50:16;;;;;;;;;;;;;;;;;;2082355;28;19960;-44
2022/03/15 02:51:18;;;;;;;;;;;;;;;;;;2086885;28;19975;-48
2022/03/15 02:52:19;;;;;;;;;;;;;;;;;;2090998;28;19970;-48
2022/03/15 02:53:21;;;;;;;;;;;;;;;;;;2090525;28;20354;-48
2022/03/15 02:54:22;;;;;;;;;;;;;;;;;;2091093;28;19928;-43
2022/03/15 02:55:25;;;;;;;;;;;;;;;;;;2090686;28;19999;-43
2022/03/15 02:56:27;;;;;;;;;;;;;;;;;;2090516;28;20007;-43
2022/03/15 02:57:28;;;;;;;;;;;;;;;;;;2090642;28;20046;-44
2022/03/15 02:58:29;;;;;;;;;;;;;;;;;;2090631;28;19925;-45
2022/03/15 02:59:31;;;;;;;;;;;;;;;;;;2090590;28;19994;-44
2022/03/15 03:00:33;;;;;;;;;;;;;;;;;;2090501;28;20462;-44
2022/03/15 03:01:34;;;;;;;;;;;;;;;;;;2090376;28;20412;-43
2022/03/15 03:02:36;;;;;;;;;;;;;;;;;;2090452;28;19924;-50
2022/03/15 03:03:37;;;;;;;;;;;;;;;;;;2090335;28;19995;-44
2022/03/15 03:04:38;;;;;;;;;;;;;;;;;;2090239;28;20378;-44
2022/03/15 03:05:39;;;;;;;;;;;;;;;;;;2090197;28;20147;-44
2022/03/15 03:06:41;;;;;;;;;;;;;;;;;;2090281;28;19986;-44
2022/03/15 03:07:45;;;;;;;;;;;;;;;;;;2090182;28;20387;-44
2022/03/15 03:08:46;;;;;;;;;;;;;;;;;;2090461;28;20449;-43
2022/03/15 03:09:47;;;;;;;;;;;;;;;;;;2089111;28;19940;-48
2022/03/15 03:10:48;;;;;;;;;;;;;;;;;;2087919;28;19931;-50
2022/03/15 03:11:50;;;;;;;;;;;;;;;;;;2090488;28;19925;-49
2022/03/15 03:12:51;;;;;;;;;;;;;;;;;;2088331;28;20031;-48
2022/03/15 03:13:55;;;;;;;;;;;;;;;;;;2089809;28;19971;-49
2022/03/15 03:14:56;;;;;;;;;;;;;;;;;;2090508;28;20015;-50
2022/03/15 03:15:59;;;;;;;;;;;;;;;;;;2090338;28;19931;-48
2022/03/15 03:17:00;;;;;;;;;;;;;;;;;;2090246;28;19940;-43
2022/03/15 03:18:01;;;;;;;;;;;;;;;;;;2090497;28;20362;-44
2022/03/15 03:19:07;;;;;;;;;;;;;;;;;;2090204;28;20393;-43
2022/03/15 03:20:09;;;;;;;;;;;;;;;;;;2090495;28;20340;-44
2022/03/15 03:21:12;;;;;;;;;;;;;;;;;;2090333;28;19959;-44
2022/03/15 03:22:13;;;;;;;;;;;;;;;;;;2090671;28;19987;-48
2022/03/15 03:23:16;;;;;;;;;;;;;;;;;;2090135;28;19967;-48
2022/03/15 03:24:24;;;;;;;;;;;;;;;;;;2090645;28;20007;-48
2022/03/15 03:25:30;;;;;;;;;;;;;;;;;;2090826;28;19929;-43
2022/03/15 03:26:32;;;;;;;;;;;;;;;;;;2090252;28;20050;-44
2022/03/15 03:27:33;;;;;;;;;;;;;;;;;;2090439;28;19931;-44
2022/03/15 03:28:37;;;;;;;;;;;;;;;;;;2090365;28;19994;-44
2022/03/15 03:29:38;;;;;;;;;;;;;;;;;;2090430;28;19951;-44
2022/03/15 03:30:46;;;;;;;;;;;;;;;;;;2090363;28;19970;-44
2022/03/15 03:31:48;;;;;;;;;;;;;;;;;;2089584;28;20294;-43
2022/03/15 03:32:49;;;;;;;;;;;;;;;;;;2085687;28;20023;-49
2022/03/15 03:33:51;;;;;;;;;;;;;;;;;;2090751;28;19971;-44
2022/03/15 03:34:52;;;;;;;;;;;;;;;;;;2090368;28;20011;-44
2022/03/15 03:35:53;;;;;;;;;;;;;;;;;;2090357;28;19975;-43
2022/03/15 03:36:55;;;;;;;;;;;;;;;;;;2089968;28;20297;-48
2022/03/15 03:38:01;;;;;;;;;;;;;;;;;;2090454;28;19924;-47
2022/03/15 03:39:03;;;;;;;;;;;;;;;;;;2090385;28;19925;-48
2022/03/15 03:40:07;;;;;;;;;;;;;;;;;;2090437;28;19935;-47
2022/03/15 03:41:08;;;;;;;;;;;;;;;;;;2090301;28;20019;-48
2022/03/15 03:42:09;;;;;;;;;;;;;;;;;;2090179;28;19963;-48
2022/03/15 03:43:10;;;;;;;;;;;;;;;;;;2090343;28;19925;-48
2022/03/15 03:44:11;;;;;;;;;;;;;;;;;;2090328;28;20048;-48
2022/03/15 03:45:12;;;;;;;;;;;;;;;;;;2090345;28;20435;-48
2022/03/15 03:46:14;;;;;;;;;;;;;;;;;;2089944;28;20019;-48
2022/03/15 03:47:17;;;;;;;;;;;;;;;;;;2090307;28;20055;-48
2022/03/15 03:48:18;;;;;;;;;;;;;;;;;;2090214;28;20149;-47
2022/03/15 03:49:19;;;;;;;;;;;;;;;;;;2090422;28;20054;-48
2022/03/15 03:50:20;;;;;;;;;;;;;;;;;;2090218;28;19998;-48
2022/03/15 03:51:21;;;;;;;;;;;;;;;;;;2090308;28;19925;-44
2022/03/15 03:52:22;;;;;;;;;;;;;;;;;;2090695;28;19968;-43
2022/03/15 03:53:24;;;;;;;;;;;;;;;;;;2089751;28;20409;-44
2022/03/15 03:54:25;;;;;;;;;;;;;;;;;;2090369;28;20015;-43
2022/03/15 03:55:26;;;;;;;;;;;;;;;;;;2090150;28;19925;-44
2022/03/15 03:56:27;;;;;;;;;;;;;;;;;;2089389;28;20062;-44
2022/03/15 03:57:29;;;;;;;;;;;;;;;;;;2089884;28;19925;-43
2022/03/15 03:58:30;;;;;;;;;;;;;;;;;;2090038;28;20043;-43
2022/03/15 03:59:31;;;;;;;;;;;;;;;;;;2090231;28;20031;-43
2022/03/15 04:00:32;;;;;;;;;;;;;;;;;;2090319;28;19999;-44
2022/03/15 04:01:34;;;;;;;;;;;;;;;;;;2090317;28;19924;-43
2022/03/15 04:02:35;;;;;;;;;;;;;;;;;;2090126;28;19925;-43
2022/03/15 04:03:37;;;;;;;;;;;;;;;;;;2089994;28;19932;-43
2022/03/15 04:04:38;;;;;;;;;;;;;;;;;;2090331;28;20353;-44
2022/03/15 04:05:40;;;;;;;;;;;;;;;;;;2090352;28;20011;-48
2022/03/15 04:06:41;;;;;;;;;;;;;;;;;;2090180;28;20377;-48
2022/03/15 04:07:43;;;;;;;;;;;;;;;;;;2089945;28;20004;-50
2022/03/15 04:08:44;;;;;;;;;;;;;;;;;;2090298;28;20050;-47
2022/03/15 04:09:45;;;;;;;;;;;;;;;;;;2090340;28;19932;-48
2022/03/15 04:10:46;;;;;;;;;;;;;;;;;;2089980;28;19991;-47
2022/03/15 04:11:49;;;;;;;;;;;;;;;;;;2090731;28;19925;-44
2022/03/15 04:12:50;;;;;;;;;;;;;;;;;;2089791;28;20020;-43
2022/03/15 04:13:52;;;;;;;;;;;;;;;;;;2090289;28;19956;-43
2022/03/15 04:14:53;;;;;;;;;;;;;;;;;;2090196;28;20008;-43
2022/03/15 04:15:54;;;;;;;;;;;;;;;;;;2089963;28;20023;-44
2022/03/15 04:16:55;;;;;;;;;;;;;;;;;;2089950;28;19972;-48
2022/03/15 04:17:57;;;;;;;;;;;;;;;;;;2090158;28;19979;-48
2022/03/15 04:18:58;;;;;;;;;;;;;;;;;;2090054;28;19924;-48
2022/03/15 04:19:59;;;;;;;;;;;;;;;;;;2090245;28;19925;-43
2022/03/15 04:21:00;;;;;;;;;;;;;;;;;;2090143;28;19925;-44
2022/03/15 04:22:01;;;;;;;;;;;;;;;;;;2090298;28;20297;-47
2022/03/15 04:23:02;;;;;;;;;;;;;;;;;;2090129;28;19928;-48
2022/03/15 04:24:04;;;;;;;;;;;;;;;;;;2089751;28;20394;-48
2022/03/15 04:25:05;;;;;;;;;;;;;;;;;;2090330;28;19932;-49
2022/03/15 04:26:06;;;;;;;;;;;;;;;;;;2089905;28;19968;-48
2022/03/15 04:27:07;;;;;;;;;;;;;;;;;;2089872;28;20358;-49
2022/03/15 04:28:09;;;;;;;;;;;;;;;;;;2090232;28;19925;-49
2022/03/15 04:29:10;;;;;;;;;;;;;;;;;;2090044;28;19968;-44
2022/03/15 04:30:12;;;;;;;;;;;;;;;;;;2090126;28;19972;-44
2022/03/15 04:31:13;;;;;;;;;;;;;;;;;;2089864;28;20417;-44
2022/03/15 04:32:15;;;;;;;;;;;;;;;;;;2090028;28;19986;-43
2022/03/15 04:33:16;;;;;;;;;;;;;;;;;;2090178;28;20345;-47
2022/03/15 04:34:17;;;;;;;;;;;;;;;;;;2089959;28;19931;-51
2022/03/15 04:35:19;;;;;;;;;;;;;;;;;;2089741;28;19974;-47
2022/03/15 04:36:20;;;;;;;;;;;;;;;;;;2090310;28;19932;-48
2022/03/15 04:37:21;;;;;;;;;;;;;;;;;;2089793;28;20020;-48
2022/03/15 04:38:22;;;;;;;;;;;;;;;;;;2089986;28;19924;-47
2022/03/15 04:39:23;;;;;;;;;;;;;;;;;;2090115;28;20060;-47
2022/03/15 04:40:25;;;;;;;;;;;;;;;;;;2089865;28;19925;-44
2022/03/15 04:41:26;;;;;;;;;;;;;;;;;;2089980;28;20038;-44
2022/03/15 04:42:27;;;;;;;;;;;;;;;;;;2089868;28;19925;-44
2022/03/15 04:43:29;;;;;;;;;;;;;;;;;;2090109;28;20051;-44
2022/03/15 04:44:31;;;;;;;;;;;;;;;;;;2089912;28;19970;-44
2022/03/15 04:45:32;;;;;;;;;;;;;;;;;;2090052;28;20019;-44
2022/03/15 04:46:33;;;;;;;;;;;;;;;;;;2089740;28;20374;-44
2022/03/15 04:47:34;;;;;;;;;;;;;;;;;;2090067;28;20346;-44
2022/03/15 04:48:35;;;;;;;;;;;;;;;;;;2089863;28;19931;-43
2022/03/15 04:49:36;;;;;;;;;;;;;;;;;;2090083;28;20015;-44
2022/03/15 04:50:38;;;;;;;;;;;;;;;;;;2089859;28;20449;-48
2022/03/15 04:51:39;;;;;;;;;;;;;;;;;;2089291;28;20015;-48
2022/03/15 04:52:40;;;;;;;;;;;;;;;;;;2090115;28;20283;-48
2022/03/15 04:53:41;;;;;;;;;;;;;;;;;;2089780;28;20023;-51
2022/03/15 04:54:42;;;;;;;;;;;;;;;;;;2089952;28;20005;-51
2022/03/15 04:55:43;;;;;;;;;;;;;;;;;;2090062;28;19999;-48
2022/03/15 04:56:44;;;;;;;;;;;;;;;;;;2089916;28;19929;-45
2022/03/15 04:57:46;;;;;;;;;;;;;;;;;;2089833;28;20000;-43
2022/03/15 04:58:47;;;;;;;;;;;;;;;;;;2090166;28;19968;-44
2022/03/15 04:59:48;;;;;;;;;;;;;;;;;;2089546;28;19994;-44
2022/03/15 05:00:49;;;;;;;;;;;;;;;;;;2089560;28;19999;-44
2022/03/15 05:01:51;;;;;;;;;;;;;;;;;;2089602;28;20012;-44
2022/03/15 05:02:52;;;;;;;;;;;;;;;;;;2090208;28;19981;-48
2022/03/15 05:03:53;;;;;;;;;;;;;;;;;;2089675;28;19970;-48
2022/03/15 05:04:54;;;;;;;;;;;;;;;;;;2089373;28;19939;-47
2022/03/15 05:05:55;;;;;;;;;;;;;;;;;;2089020;28;19928;-48
2022/03/15 05:06:56;;;;;;;;;;;;;;;;;;2089685;28;19972;-51
2022/03/15 05:07:58;;;;;;;;;;;;;;;;;;2089990;28;19932;-51
2022/03/15 05:08:59;;;;;;;;;;;;;;;;;;2089328;28;19963;-48
2022/03/15 05:11:20;;;;;;;;;;;;;;;;;;2089612;28;19981;-50
2022/03/15 05:12:22;;;;;;;;;;;;;;;;;;2089370;28;19944;-47
2022/03/15 05:13:23;;;;;;;;;;;;;;;;;;2089385;28;19960;-48
2022/03/15 05:14:24;;;;;;;;;;;;;;;;;;2090002;28;20381;-47
2022/03/15 05:15:25;;;;;;;;;;;;;;;;;;2089822;28;20507;-48
2022/03/15 05:16:26;;;;;;;;;;;;;;;;;;2089940;28;19925;-50
2022/03/15 05:17:28;;;;;;;;;;;;;;;;;;2089971;28;19924;-44
2022/03/15 05:18:30;;;;;;;;;;;;;;;;;;2089731;28;19979;-44
2022/03/15 05:19:31;;;;;;;;;;;;;;;;;;2089353;28;19952;-43
2022/03/15 05:20:32;;;;;;;;;;;;;;;;;;2089657;28;19964;-43
2022/03/15 05:21:33;;;;;;;;;;;;;;;;;;2089798;28;20436;-48
2022/03/15 05:22:34;;;;;;;;;;;;;;;;;;2089225;28;19928;-48
2022/03/15 05:23:36;;;;;;;;;;;;;;;;;;2089881;28;20016;-49
2022/03/15 05:24:38;;;;;;;;;;;;;;;;;;2089717;28;20011;-44
2022/03/15 05:25:39;;;;;;;;;;;;;;;;;;2089726;28;20363;-43
2022/03/15 05:26:40;;;;;;;;;;;;;;;;;;2089763;28;20067;-44
2022/03/15 05:27:41;;;;;;;;;;;;;;;;;;2089812;28;19963;-43
2022/03/15 05:28:43;;;;;;;;;;;;;;;;;;2089737;28;19924;-44
2022/03/15 05:29:43;;;;;;;;;;;;;;;;;;2089589;28;20429;-44
2022/03/15 05:30:45;;;;;;;;;;;;;;;;;;2089494;28;20039;-43
2022/03/15 05:31:46;;;;;;;;;;;;;;;;;;2089240;28;20058;-43
2022/03/15 05:32:48;;;;;;;;;;;;;;;;;;2089792;28;20008;-44
2022/03/15 05:33:49;;;;;;;;;;;;;;;;;;2089725;28;20031;-45
2022/03/15 05:34:50;;;;;;;;;;;;;;;;;;2089935;28;19936;-48
2022/03/15 05:35:51;;;;;;;;;;;;;;;;;;2089762;28;20004;-48
2022/03/15 05:36:53;;;;;;;;;;;;;;;;;;2089525;28;19925;-50
2022/03/15 05:37:54;;;;;;;;;;;;;;;;;;2089511;28;20032;-49
2022/03/15 05:38:55;;;;;;;;;;;;;;;;;;2089632;28;19987;-49
2022/03/15 05:39:57;;;;;;;;;;;;;;;;;;2089575;28;19932;-50
2022/03/15 05:40:59;;;;;;;;;;;;;;;;;;2089736;28;19999;-49
2022/03/15 05:42:20;;;;;;;;;;;;;;;;;;2089539;28;19924;-45
2022/03/15 05:43:22;;;;;;;;;;;;;;;;;;2089614;28;19925;-44
2022/03/15 05:44:24;;;;;;;;;;;;;;;;;;2089840;28;19975;-49
2022/03/15 05:45:25;;;;;;;;;;;;;;;;;;2089693;28;19929;-49
2022/03/15 05:46:26;;;;;;;;;;;;;;;;;;2089763;28;20538;-43
2022/03/15 05:47:28;;;;;;;;;;;;;;;;;;2089605;28;19929;-44
2022/03/15 05:48:29;;;;;;;;;;;;;;;;;;2089426;28;20015;-44
2022/03/15 05:49:30;;;;;;;;;;;;;;;;;;2089576;28;20027;-44
2022/03/15 05:50:33;;;;;;;;;;;;;;;;;;2089381;28;19932;-44
2022/03/15 05:51:34;;;;;;;;;;;;;;;;;;2089116;28;20302;-44
2022/03/15 05:52:35;;;;;;;;;;;;;;;;;;2089129;28;20046;-44
2022/03/15 05:53:36;;;;;;;;;;;;;;;;;;2089748;28;19924;-50
2022/03/15 05:54:37;;;;;;;;;;;;;;;;;;2089800;28;19936;-44
2022/03/15 05:55:39;;;;;;;;;;;;;;;;;;2090296;28;20401;-49
2022/03/15 05:56:40;;;;;;;;;;;;;;;;;;2089679;28;20015;-48
2022/03/15 05:57:42;;;;;;;;;;;;;;;;;;2089380;28;20031;-48
2022/03/15 05:58:44;;;;;;;;;;;;;;;;;;2089889;28;20030;-44
2022/03/15 05:59:45;;;;;;;;;;;;;;;;;;2089501;28;20412;-44
2022/03/15 06:00:46;;;;;;;;;;;;;;;;;;2089375;28;20035;-43
2022/03/15 06:01:47;;;;;;;;;;;;;;;;;;2089100;28;19924;-44
2022/03/15 06:02:48;;;;;;;;;;;;;;;;;;2089450;28;20002;-43
2022/03/15 06:03:50;;;;;;;;;;;;;;;;;;2088800;28;19924;-44
2022/03/15 06:04:53;;;;;;;;;;;;;;;;;;2086147;28;20016;-44
2022/03/15 06:05:54;;;;;;;;;;;;;;;;;;2081587;28;20016;-44
2022/03/15 06:06:55;;;;;;;;;;;;;;;;;;2088657;28;19960;-44
2022/03/15 06:07:57;;;;;;;;;;;;;;;;;;2088985;28;19999;-44
2022/03/15 06:08:58;;;;;;;;;;;;;;;;;;2088794;28;20020;-44
2022/03/15 06:09:59;;;;;;;;;;;;;;;;;;2089770;28;20346;-48
2022/03/15 06:11:03;;;;;;;;;;;;;;;;;;2088727;28;20298;-48
2022/03/15 06:12:07;;;;;;;;;;;;;;;;;;2088094;28;19937;-47
2022/03/15 06:13:08;;;;;;;;;;;;;;;;;;2089784;28;19925;-49
2022/03/15 06:14:14;;;;;;;;;;;;;;;;;;2087171;28;19924;-47
2022/03/15 06:15:15;;;;;;;;;;;;;;;;;;2090407;28;19968;-48
2022/03/15 06:16:16;;;;;;;;;;;;;;;;;;2089892;28;21167;-49
2022/03/15 06:17:18;;;;;;;;;;;;;;;;;;2089698;28;20622;-48
2022/03/15 06:18:19;;;;;;;;;;;;;;;;;;2090187;28;19963;-47
2022/03/15 06:19:20;;;;;;;;;;;;;;;;;;2090310;28;20469;-44
2022/03/15 06:20:21;;;;;;;;;;;;;;;;;;2090723;28;19999;-43
2022/03/15 06:21:23;;;;;;;;;;;;;;;;;;2090931;28;19939;-51
2022/03/15 06:22:23;;;;;;;;;;;;;;;;;;2086687;28;20010;-48
2022/03/15 06:23:25;;;;;;;;;;;;;;;;;;2082623;28;20075;-49
2022/03/15 06:24:27;;;;;;;;;;;;;;;;;;2082876;28;19991;-48
2022/03/15 06:25:30;;;;;;;;;;;;;;;;;;2082552;28;20444;-48
2022/03/15 06:26:31;;;;;;;;;;;;;;;;;;2087099;28;20027;-49
2022/03/15 06:27:32;;;;;;;;;;;;;;;;;;2091016;28;19954;-43
2022/03/15 06:28:33;;;;;;;;;;;;;;;;;;2090610;28;19975;-49
2022/03/15 06:29:35;;;;;;;;;;;;;;;;;;2090800;28;19929;-49
2022/03/15 06:30:36;;;;;;;;;;;;;;;;;;2090907;28;20058;-51
2022/03/15 06:31:37;;;;;;;;;;;;;;;;;;2088687;28;20035;-48
2022/03/15 06:32:38;;;;;;;;;;;;;;;;;;2090826;28;19932;-49
2022/03/15 06:33:42;;;;;;;;;;;;;;;;;;2090467;28;19931;-48
2022/03/15 06:34:43;;;;;;;;;;;;;;;;;;2087130;28;20012;-49
2022/03/15 06:35:46;;;;;;;;;;;;;;;;;;2090691;28;20007;-50
2022/03/15 06:36:47;;;;;;;;;;;;;;;;;;2090647;28;20015;-51
2022/03/15 06:37:48;;;;;;;;;;;;;;;;;;2090478;28;20416;-48
2022/03/15 06:38:49;;;;;;;;;;;;;;;;;;2090694;28;19925;-48
2022/03/15 06:39:50;;;;;;;;;;;;;;;;;;2090749;28;20350;-49
2022/03/15 06:40:52;;;;;;;;;;;;;;;;;;2090861;28;20386;-48
2022/03/15 06:41:54;;;;;;;;;;;;;;;;;;2090240;28;20408;-48
2022/03/15 06:42:55;;;;;;;;;;;;;;;;;;2090885;28;19956;-50
2022/03/15 06:43:57;;;;;;;;;;;;;;;;;;2090732;28;19955;-49
2022/03/15 06:44:58;;;;;;;;;;;;;;;;;;2090720;28;19925;-50
2022/03/15 06:45:59;;;;;;;;;;;;;;;;;;2090239;28;19968;-51
2022/03/15 06:47:01;;;;;;;;;;;;;;;;;;2079202;28;19929;-50
2022/03/15 06:48:02;;;;;;;;;;;;;;;;;;2088668;28;19972;-49
2022/03/15 06:49:04;;;;;;;;;;;;;;;;;;2090735;28;20054;-51
2022/03/15 06:50:08;;;;;;;;;;;;;;;;;;2090680;28;19975;-49
2022/03/15 06:51:09;;;;;;;;;;;;;;;;;;2089925;28;20382;-51
2022/03/15 06:52:11;;;;;;;;;;;;;;;;;;2090725;28;20279;-45
2022/03/15 06:53:12;;;;;;;;;;;;;;;;;;2090445;28;20024;-44
2022/03/15 06:54:13;;;;;;;;;;;;;;;;;;2090107;28;20044;-44
2022/03/15 06:55:14;;;;;;;;;;;;;;;;;;2090004;28;19933;-44
2022/03/15 06:56:16;;;;;;;;;;;;;;;;;;2085893;28;19925;-45
2022/03/15 06:57:17;;;;;;;;;;;;;;;;;;2082559;28;20018;-49
2022/03/15 06:58:18;;;;;;;;;;;;;;;;;;2082245;28;19932;-44
2022/03/15 06:59:20;;;;;;;;;;;;;;;;;;2087631;28;19925;-48
2022/03/15 07:00:22;;;;;;;;;;;;;;;;;;2090828;28;19928;-44
2022/03/15 07:01:23;;;;;;;;;;;;;;;;;;2090542;28;19991;-45